Time;durP1;ratioP1;P1;durP2;ratioP2;P2;SDS_P1;SDS_P2;PMS_P1;PMS_P2;Temp;Humidity;BMP_temperature;BMP_pressure;BME280_temperature;BME280_humidity;BME280_pressure;Samples;Min_cycle;Max_cycle;Signal;HPM_P1;HPM_P2
2022/01/12 00:01:43;;;;;;;19.43;18.33;;;5.60;77.70;;;;;;5009957;28;20041;-77
2022/01/12 00:04:10;;;;;;;20.27;19.27;;;5.60;77.80;;;;;;5000587;28;20049;-77
2022/01/12 00:06:36;;;;;;;18.40;17.50;;;5.60;77.80;;;;;;5004735;28;20040;-77
2022/01/12 00:09:06;;;;;;;20.17;18.83;;;5.60;77.90;;;;;;4983223;28;20534;-77
2022/01/12 00:11:36;;;;;;;20.90;19.50;;;5.60;77.80;;;;;;5012301;28;20042;-77
2022/01/12 00:14:02;;;;;;;19.60;18.13;;;5.60;77.70;;;;;;4998486;28;20038;-77
2022/01/12 00:16:28;;;;;;;22.40;21.00;;;5.50;77.70;;;;;;5012119;28;20137;-77
2022/01/12 00:18:54;;;;;;;22.27;20.97;;;5.60;77.80;;;;;;4989998;28;20045;-77
2022/01/12 00:21:20;;;;;;;21.97;20.30;;;5.50;77.80;;;;;;5032346;28;20040;-77
2022/01/12 00:23:47;;;;;;;19.23;18.30;;;5.50;77.80;;;;;;5069858;28;20416;-77
2022/01/12 00:26:36;;;;;;;21.10;19.60;;;5.50;77.80;;;;;;5092495;28;20032;-77
2022/01/12 00:34:30;;;;;;;19.87;18.77;;;5.40;77.80;;;;;;5086860;28;20044;-77
2022/01/12 00:36:56;;;;;;;18.33;17.43;;;5.40;77.80;;;;;;5096561;28;20048;-77
2022/01/12 00:39:22;;;;;;;18.43;17.53;;;5.40;77.90;;;;;;5097174;28;20028;-77
2022/01/12 00:41:48;;;;;;;18.10;16.90;;;5.40;78.00;;;;;;5083386;28;20520;-77
2022/01/12 00:44:31;;;;;;;17.57;16.47;;;5.40;78.00;;;;;;5056578;28;20028;-77
2022/01/12 00:46:58;;;;;;;17.60;16.70;;;5.40;77.90;;;;;;5081482;28;20032;-77
2022/01/12 00:49:24;;;;;;;18.40;17.50;;;5.40;77.90;;;;;;5065340;28;20035;-77
2022/01/12 00:51:54;;;;;;;17.17;16.20;;;5.40;77.80;;;;;;5098327;28;20039;-77
2022/01/12 00:54:25;;;;;;;17.90;16.70;;;5.30;77.70;;;;;;5061655;28;20028;-77
2022/01/12 00:56:51;;;;;;;18.05;16.75;;;5.30;77.70;;;;;;5065972;28;20032;-77
2022/01/12 00:59:17;;;;;;;17.97;17.07;;;5.20;77.80;;;;;;5056687;28;20029;-77
2022/01/12 01:01:43;;;;;;;18.67;17.40;;;5.20;77.80;;;;;;5079798;28;20406;-77
2022/01/12 01:04:09;;;;;;;19.30;18.33;;;5.20;77.90;;;;;;5076807;28;20044;-77
2022/01/12 01:06:36;;;;;;;17.67;16.87;;;5.20;78.00;;;;;;5077034;28;20028;-77
2022/01/12 01:09:04;;;;;;;17.60;16.70;;;5.20;78.10;;;;;;5047146;28;20033;-77
2022/01/12 01:11:30;;;;;;;16.60;15.80;;;5.20;78.10;;;;;;5067179;28;20060;-77
2022/01/12 01:16:53;;;;;;;17.20;16.30;;;5.20;78.00;;;;;;5044186;28;20048;-77
2022/01/12 01:27:34;;;;;;;18.10;17.10;;;5.20;77.90;;;;;;5086407;28;20519;-77
2022/01/12 01:30:00;;;;;;;16.53;15.73;;;5.20;78.10;;;;;;5056462;28;20402;-77
2022/01/12 01:32:27;;;;;;;18.13;17.13;;;5.20;78.00;;;;;;5100879;28;20032;-77
2022/01/12 01:34:53;;;;;;;18.97;17.73;;;5.20;78.10;;;;;;5060297;28;20029;-77
2022/01/12 01:37:19;;;;;;;16.93;16.13;;;5.20;78.00;;;;;;5102922;28;20055;-77
2022/01/12 01:39:46;;;;;;;16.70;15.90;;;5.20;78.00;;;;;;5069589;28;20040;-77
2022/01/12 01:42:20;;;;;;;17.80;16.80;;;5.10;78.00;;;;;;5060836;28;20402;-77
2022/01/12 01:55:28;;;;;;;18.40;17.43;;;5.10;78.20;;;;;;5095545;28;20039;-77
2022/01/12 01:57:54;;;;;;;17.53;16.60;;;5.10;78.10;;;;;;5072385;28;20489;-77
2022/01/12 02:00:23;;;;;;;17.60;16.40;;;5.10;78.90;;;;;;5088348;28;20021;-77
2022/01/12 02:02:50;;;;;;;18.80;17.90;;;5.00;78.10;;;;;;5086270;28;20040;-77
2022/01/12 02:05:16;;;;;;;19.40;18.10;;;5.00;78.10;;;;;;5065299;28;20036;-77
2022/01/12 02:07:43;;;;;;;17.83;17.03;;;5.00;78.20;;;;;;5085040;28;20040;-77
2022/01/12 02:10:09;;;;;;;17.83;16.93;;;5.00;78.10;;;;;;5097140;28;20397;-77
2022/01/12 02:12:35;;;;;;;17.70;16.80;;;5.00;78.20;;;;;;5096677;28;20377;-77
2022/01/12 02:15:02;;;;;;;19.17;18.17;;;4.90;78.20;;;;;;5097301;28;20033;-77
2022/01/12 02:17:35;;;;;;;18.20;17.20;;;4.90;78.20;;;;;;5055970;28;20052;-77
2022/01/12 02:36:18;;;;;;;17.80;16.70;;;4.80;78.40;;;;;;5012579;28;20531;-77
2022/01/12 02:41:29;;;;;;;17.53;16.63;;;4.80;78.40;;;;;;5027088;28;20149;-77
2022/01/12 02:54:48;;;;;;;16.67;15.87;;;4.60;78.30;;;;;;5013446;28;20037;-77
2022/01/12 02:57:15;;;;;;;18.25;17.25;;;4.60;78.40;;;;;;5001075;28;20045;-77
2022/01/12 03:00:00;;;;;;;18.37;17.40;;;4.60;78.50;;;;;;5010349;28;20069;-77
2022/01/12 03:02:34;;;;;;;17.77;16.83;;;4.60;78.50;;;;;;5008850;28;20113;-77
2022/01/12 03:07:39;;;;;;;17.80;16.83;;;4.50;78.40;;;;;;5064679;28;20048;-77
2022/01/12 03:10:07;;;;;;;17.63;16.53;;;4.50;78.40;;;;;;5066423;28;20036;-77
2022/01/12 03:12:35;;;;;;;16.80;16.00;;;4.40;78.50;;;;;;5073880;28;20037;-77
2022/01/12 03:15:02;;;;;;;16.80;16.00;;;4.40;78.50;;;;;;5057681;28;20496;-77
2022/01/12 03:17:28;;;;;;;16.97;16.17;;;4.30;78.50;;;;;;5053973;28;20056;-77
2022/01/12 03:19:54;;;;;;;17.20;16.20;;;4.30;78.60;;;;;;5055015;28;20036;-77
2022/01/12 03:22:20;;;;;;;17.60;16.70;;;4.20;78.60;;;;;;5056894;28;20032;-77
2022/01/12 03:24:46;;;;;;;17.40;16.53;;;4.10;78.60;;;;;;5080576;28;20028;-77
2022/01/12 03:27:14;;;;;;;17.63;16.77;;;4.00;78.70;;;;;;5058288;28;20033;-77
2022/01/12 03:29:42;;;;;;;16.80;16.00;;;3.90;78.70;;;;;;5084115;28;20053;-77
2022/01/12 03:32:11;;;;;;;17.00;16.20;;;3.90;78.90;;;;;;5041385;28;20060;-77
2022/01/12 03:34:41;;;;;;;16.90;16.10;;;3.90;78.90;;;;;;5055040;28;20374;-77
2022/01/12 03:39:51;;;;;;;17.10;16.30;;;3.90;78.80;;;;;;5067453;28;20035;-77
2022/01/12 03:42:19;;;;;;;17.00;16.20;;;3.80;78.80;;;;;;5098295;28;20028;-77
2022/01/12 03:44:45;;;;;;;18.70;17.60;;;3.80;78.80;;;;;;5070465;28;20485;-77
2022/01/12 03:47:11;;;;;;;17.80;17.00;;;3.80;78.80;;;;;;5091192;28;20044;-77
2022/01/12 03:49:37;;;;;;;17.20;16.40;;;3.80;78.90;;;;;;5056905;28;20025;-77
2022/01/12 03:52:04;;;;;;;16.60;15.80;;;3.70;78.70;;;;;;5089298;28;20044;-77
2022/01/12 03:54:30;;;;;;;16.10;15.40;;;3.70;78.70;;;;;;5059062;28;20047;-77
2022/01/12 03:56:59;;;;;;;16.67;15.87;;;3.70;78.80;;;;;;5090233;28;20048;-77
2022/01/12 03:59:25;;;;;;;16.33;15.53;;;3.60;78.90;;;;;;5087770;28;20056;-77
2022/01/12 04:01:51;;;;;;;16.07;15.37;;;3.60;78.90;;;;;;5069792;28;20482;-77
2022/01/12 04:04:23;;;;;;;18.47;17.03;;;3.60;78.90;;;;;;5066854;28;20029;-77
2022/01/12 04:09:33;;;;;;;17.80;16.90;;;3.50;78.70;;;;;;5094830;28;20401;-77
2022/01/12 04:11:59;;;;;;;15.83;15.10;;;3.50;78.80;;;;;;5082819;28;20044;-77
2022/01/12 04:14:25;;;;;;;16.20;15.40;;;3.50;78.80;;;;;;5087421;28;20029;-77
2022/01/12 04:16:52;;;;;;;16.73;15.93;;;3.40;78.80;;;;;;5072854;28;20079;-77
2022/01/12 04:19:18;;;;;;;17.17;16.37;;;3.40;78.90;;;;;;5067249;28;20032;-80
2022/01/12 04:21:48;;;;;;;16.63;15.83;;;3.40;79.00;;;;;;5066517;28;20035;-77
2022/01/12 04:24:14;;;;;;;18.43;17.53;;;3.30;78.90;;;;;;5097192;28;20033;-76
2022/01/12 04:26:41;;;;;;;17.57;16.57;;;3.40;79.00;;;;;;5088871;28;20042;-76
2022/01/12 04:29:07;;;;;;;16.50;15.70;;;3.30;78.90;;;;;;5055333;28;20040;-76
2022/01/12 04:31:36;;;;;;;15.97;15.27;;;3.40;78.90;;;;;;5055607;28;20382;-76
2022/01/12 04:34:03;;;;;;;16.10;15.40;;;3.20;78.70;;;;;;5058169;28;20056;-76
2022/01/12 04:36:30;;;;;;;17.33;16.43;;;3.20;78.90;;;;;;5071557;28;20051;-76
2022/01/12 04:38:56;;;;;;;22.00;17.23;;;3.10;78.90;;;;;;5048165;28;20033;-76
2022/01/12 04:41:24;;;;;;;17.80;16.90;;;3.10;78.90;;;;;;5086219;28;20025;-76
2022/01/12 04:43:51;;;;;;;17.13;16.30;;;3.10;78.90;;;;;;5067400;28;20024;-76
2022/01/12 04:46:29;;;;;;;16.37;15.67;;;3.00;78.90;;;;;;5072513;28;20029;-77
2022/01/12 04:49:08;;;;;;;16.27;15.57;;;3.00;78.90;;;;;;5095178;28;20470;-76
2022/01/12 04:51:35;;;;;;;16.97;16.10;;;3.00;78.90;;;;;;5066076;28;20501;-76
2022/01/12 04:54:02;;;;;;;16.77;15.97;;;2.90;79.00;;;;;;5066249;28;20040;-76
2022/01/12 04:56:29;;;;;;;16.43;15.67;;;2.80;79.10;;;;;;5071092;28;20045;-76
2022/01/12 04:58:55;;;;;;;16.47;15.67;;;2.80;79.10;;;;;;5071736;28;20032;-76
2022/01/12 05:01:24;;;;;;;15.80;15.10;;;2.80;79.20;;;;;;5069367;28;20033;-76
2022/01/12 05:06:43;;;;;;;16.03;15.33;;;2.80;79.00;;;;;;5055531;28;20035;-76
2022/01/12 05:09:43;;;;;;;16.40;15.60;;;2.70;79.00;;;;;;5068196;28;20584;-76
2022/01/12 05:15:05;;;;;;;16.00;15.30;;;2.60;79.10;;;;;;5073519;28;20036;-76
2022/01/12 05:17:31;;;;;;;15.77;15.07;;;2.60;79.20;;;;;;5052660;28;20059;-76
2022/01/12 05:19:57;;;;;;;16.47;15.67;;;2.60;79.20;;;;;;5070360;28;20039;-76
2022/01/12 05:22:23;;;;;;;15.80;15.10;;;2.50;79.10;;;;;;5071184;28;20032;-76
2022/01/12 05:24:49;;;;;;;17.33;16.33;;;2.50;79.10;;;;;;5052636;28;20035;-76
2022/01/12 05:27:15;;;;;;;16.13;15.43;;;2.40;79.20;;;;;;5068860;28;20032;-76
2022/01/12 05:29:42;;;;;;;15.67;14.97;;;2.40;79.40;;;;;;5069895;28;20032;-76
2022/01/12 05:32:10;;;;;;;15.90;15.20;;;2.40;79.30;;;;;;5052395;28;20036;-76
2022/01/12 05:34:38;;;;;;;15.80;15.00;;;2.30;79.30;;;;;;5070748;28;20021;-76
2022/01/12 05:37:04;;;;;;;15.10;14.40;;;2.30;79.30;;;;;;5068116;28;20045;-76
2022/01/12 05:39:30;;;;;;;17.77;16.77;;;2.30;79.50;;;;;;5052218;28;20032;-77
2022/01/12 05:41:56;;;;;;;15.53;14.80;;;2.30;79.40;;;;;;5068341;28;20397;-76
2022/01/12 05:44:23;;;;;;;16.90;16.10;;;2.30;79.30;;;;;;5070004;28;20029;-76
2022/01/12 05:46:49;;;;;;;16.83;16.03;;;2.20;79.30;;;;;;5069554;28;20048;-77
2022/01/12 05:49:34;;;;;;;16.07;15.27;;;2.20;79.40;;;;;;5069887;28;20055;-77
2022/01/12 05:52:00;;;;;;;15.43;14.73;;;2.10;79.40;;;;;;5068485;28;20055;-76
2022/01/12 05:54:26;;;;;;;15.70;15.00;;;2.20;79.50;;;;;;5053394;28;20036;-79
2022/01/12 05:56:53;;;;;;;15.47;14.77;;;2.10;79.40;;;;;;5068600;28;20064;-76
2022/01/12 05:59:19;;;;;;;15.50;14.80;;;2.20;79.50;;;;;;5073756;28;20389;-76
2022/01/12 06:01:45;;;;;;;16.00;15.20;;;2.10;79.30;;;;;;5107469;28;20047;-76
2022/01/12 06:04:11;;;;;;;15.70;15.00;;;2.10;79.50;;;;;;5073687;28;20473;-76
2022/01/12 06:06:37;;;;;;;15.30;14.60;;;2.10;79.60;;;;;;5073440;28;20024;-76
2022/01/12 06:09:03;;;;;;;15.17;14.47;;;2.10;79.60;;;;;;5072258;28;20044;-77
2022/01/12 06:11:29;;;;;;;15.80;15.00;;;2.00;79.90;;;;;;5070861;28;20040;-77
2022/01/12 06:13:57;;;;;;;15.57;14.87;;;2.00;79.60;;;;;;5074914;28;20466;-76
2022/01/12 06:16:23;;;;;;;15.80;15.10;;;2.00;79.50;;;;;;5105388;28;20059;-77
2022/01/12 06:18:49;;;;;;;15.83;15.10;;;2.00;79.50;;;;;;5088793;28;20051;-79
2022/01/12 06:21:15;;;;;;;16.50;15.63;;;2.00;80.30;;;;;;5081408;28;20490;-76
2022/01/12 06:23:42;;;;;;;15.80;15.10;;;1.90;79.50;;;;;;5105428;28;20048;-76
2022/01/12 06:26:09;;;;;;;16.73;15.83;;;2.00;79.60;;;;;;5073373;28;20029;-76
2022/01/12 06:28:41;;;;;;;16.00;14.97;;;2.00;79.70;;;;;;5082679;28;20033;-77
2022/01/12 06:31:11;;;;;;;15.17;14.47;;;2.00;79.70;;;;;;5101198;28;20040;-77
2022/01/12 06:33:39;;;;;;;15.25;14.55;;;2.00;79.50;;;;;;5088151;28;20031;-77
2022/01/12 06:36:07;;;;;;;15.70;15.00;;;2.00;79.40;;;;;;5088375;28;20044;-77
2022/01/12 06:38:33;;;;;;;15.50;14.80;;;1.90;79.40;;;;;;5041608;28;20385;-77
2022/01/12 06:40:59;;;;;;;15.30;14.60;;;1.90;79.50;;;;;;5074329;28;20033;-77
2022/01/12 06:43:27;;;;;;;15.47;14.77;;;1.90;79.50;;;;;;5072961;28;20100;-76
2022/01/12 06:45:54;;;;;;;15.90;15.10;;;1.90;79.50;;;;;;5070499;28;20044;-77
2022/01/12 06:48:20;;;;;;;16.80;16.00;;;1.80;79.60;;;;;;5055315;28;20032;-77
2022/01/12 06:50:47;;;;;;;16.73;15.93;;;1.80;80.50;;;;;;5069988;28;20335;-77
2022/01/12 06:53:13;;;;;;;15.57;14.87;;;1.80;79.70;;;;;;5071420;28;20036;-77
2022/01/12 06:55:39;;;;;;;15.50;14.73;;;1.90;79.70;;;;;;5072689;28;20500;-77
2022/01/12 06:58:05;;;;;;;15.50;14.80;;;1.90;79.60;;;;;;5071368;28;20033;-76
2022/01/12 07:00:31;;;;;;;16.17;15.47;;;1.90;79.70;;;;;;5069462;28;20040;-76
2022/01/12 07:02:57;;;;;;;15.50;14.80;;;1.80;79.70;;;;;;5072437;28;20028;-77
2022/01/12 07:05:23;;;;;;;17.43;16.43;;;1.80;79.60;;;;;;5070754;28;20367;-76
2022/01/12 07:07:50;;;;;;;15.23;14.53;;;1.80;79.60;;;;;;5055957;28;20047;-77
2022/01/12 07:10:16;;;;;;;15.67;14.97;;;1.90;79.80;;;;;;5102560;28;20477;-76
2022/01/12 07:12:42;;;;;;;17.27;16.20;;;1.90;79.70;;;;;;5087820;28;20047;-77
2022/01/12 07:15:08;;;;;;;15.60;14.90;;;1.90;79.70;;;;;;5072282;28;20020;-77
2022/01/12 07:17:34;;;;;;;15.50;14.80;;;2.00;79.80;;;;;;5077375;28;20059;-76
2022/01/12 07:20:02;;;;;;;15.80;15.10;;;2.00;79.60;;;;;;5072518;28;20397;-77
2022/01/12 07:22:29;;;;;;;16.27;15.47;;;2.00;79.50;;;;;;5053079;28;20056;-78
2022/01/12 07:24:56;;;;;;;16.53;15.73;;;2.00;79.50;;;;;;5069601;28;20385;-78
2022/01/12 07:27:22;;;;;;;16.33;15.57;;;2.00;79.50;;;;;;5070268;28;20039;-77
2022/01/12 07:29:48;;;;;;;17.23;16.13;;;2.00;79.60;;;;;;5057472;28;20033;-78
2022/01/12 07:32:14;;;;;;;15.43;14.60;;;2.00;79.60;;;;;;5053257;28;20043;-78
2022/01/12 07:34:40;;;;;;;15.47;14.77;;;2.10;79.50;;;;;;5105585;28;20032;-77
2022/01/12 07:37:06;;;;;;;15.70;15.00;;;2.10;79.40;;;;;;5071725;28;20040;-76
2022/01/12 07:39:32;;;;;;;16.17;15.33;;;2.10;79.40;;;;;;5052353;28;20496;-76
2022/01/12 07:41:58;;;;;;;15.03;14.33;;;2.00;79.40;;;;;;5056671;28;20401;-77
2022/01/12 07:44:24;;;;;;;15.80;15.10;;;1.90;79.40;;;;;;5070882;28;20044;-77
2022/01/12 07:46:50;;;;;;;15.70;15.00;;;1.80;79.50;;;;;;5054888;28;20032;-77
2022/01/12 07:49:17;;;;;;;15.70;15.00;;;1.70;79.80;;;;;;5071988;28;20030;-77
2022/01/12 07:51:43;;;;;;;16.67;15.80;;;1.70;79.90;;;;;;5053808;28;20393;-78
2022/01/12 07:54:09;;;;;;;16.70;15.83;;;1.70;80.00;;;;;;5069954;28;20052;-79
2022/01/12 07:56:35;;;;;;;17.10;16.30;;;1.80;80.10;;;;;;5069057;28;20388;-78
2022/01/12 07:59:01;;;;;;;15.87;15.17;;;1.80;80.00;;;;;;5056105;28;20103;-78
2022/01/12 08:01:27;;;;;;;15.50;14.80;;;1.80;79.90;;;;;;5068380;28;20028;-79
2022/01/12 08:03:53;;;;;;;15.30;14.60;;;1.90;79.80;;;;;;5066681;28;20036;-79
2022/01/12 08:06:20;;;;;;;15.70;15.00;;;1.90;79.70;;;;;;5080619;28;20394;-78
2022/01/12 08:08:47;;;;;;;16.37;15.57;;;1.80;79.70;;;;;;5057677;28;20040;-79
2022/01/12 08:11:13;;;;;;;16.20;15.40;;;1.90;80.00;;;;;;5087013;28;20037;-80
2022/01/12 08:13:39;;;;;;;17.17;16.23;;;1.90;80.00;;;;;;5070027;28;20039;-77
2022/01/12 08:16:05;;;;;;;15.80;15.00;;;2.00;79.90;;;;;;5059093;28;20029;-78
2022/01/12 08:18:31;;;;;;;16.53;15.73;;;2.00;79.80;;;;;;5091805;28;20048;-78
2022/01/12 08:20:58;;;;;;;18.30;17.47;;;2.00;79.80;;;;;;5081509;28;20025;-77
2022/01/12 08:23:24;;;;;;;15.67;14.97;;;2.00;79.70;;;;;;5045207;28;20048;-77
2022/01/12 08:25:51;;;;;;;17.40;16.60;;;1.90;79.60;;;;;;5067657;28;20068;-79
2022/01/12 08:28:17;;;;;;;15.97;15.27;;;1.90;79.80;;;;;;5064575;28;20048;-78
2022/01/12 08:30:43;;;;;;;17.10;16.30;;;1.90;79.90;;;;;;5057358;28;20329;-78
2022/01/12 08:33:11;;;;;;;16.10;15.30;;;1.90;79.90;;;;;;5062179;28;20036;-78
2022/01/12 08:35:37;;;;;;;15.93;15.23;;;1.90;79.90;;;;;;5058498;28;20036;-77
2022/01/12 08:38:03;;;;;;;16.73;15.83;;;1.90;79.90;;;;;;5050095;28;20056;-77
2022/01/12 08:40:29;;;;;;;18.53;17.67;;;1.80;79.90;;;;;;5068622;28;20021;-79
2022/01/12 08:42:56;;;;;;;16.03;15.23;;;1.80;80.00;;;;;;5101079;28;20385;-78
2022/01/12 08:45:22;;;;;;;18.87;17.57;;;1.70;80.10;;;;;;5097167;28;20044;-78
2022/01/12 08:47:48;;;;;;;16.80;15.90;;;1.80;80.20;;;;;;5101322;28;20023;-78
2022/01/12 08:50:14;;;;;;;17.77;16.97;;;1.80;80.20;;;;;;5094858;28;20032;-79
2022/01/12 08:52:44;;;;;;;17.20;16.20;;;1.80;80.20;;;;;;5058726;28;20036;-78
2022/01/12 08:55:12;;;;;;;16.43;15.63;;;1.80;80.20;;;;;;5087682;28;20043;-77
2022/01/12 08:57:38;;;;;;;18.67;17.80;;;1.90;80.20;;;;;;5094339;28;20037;-77
2022/01/12 09:00:05;;;;;;;15.90;15.20;;;1.90;80.00;;;;;;5079998;28;20033;-78
2022/01/12 09:02:31;;;;;;;16.40;15.60;;;1.90;79.90;;;;;;5068871;28;20032;-76
2022/01/12 09:04:57;;;;;;;16.03;15.33;;;1.90;79.90;;;;;;5068937;28;20032;-77
2022/01/12 09:07:23;;;;;;;15.77;15.07;;;1.90;80.00;;;;;;5066679;28;20033;-77
2022/01/12 09:09:49;;;;;;;16.73;15.93;;;1.90;80.10;;;;;;5080947;28;20036;-77
2022/01/12 09:12:15;;;;;;;17.73;16.73;;;1.90;80.10;;;;;;5102679;28;20028;-77
2022/01/12 09:14:41;;;;;;;16.37;15.53;;;1.90;80.10;;;;;;5068383;28;20385;-82
2022/01/12 09:17:16;;;;;;;17.33;16.43;;;1.90;80.10;;;;;;5051531;28;20056;-79
2022/01/12 09:19:42;;;;;;;15.73;14.93;;;2.00;80.10;;;;;;5087458;28;20028;-78
2022/01/12 09:22:08;;;;;;;17.10;15.97;;;2.00;80.00;;;;;;5068594;28;20024;-78
2022/01/12 09:24:35;;;;;;;16.47;15.67;;;2.00;80.00;;;;;;5068386;28;20028;-79
2022/01/12 09:27:01;;;;;;;16.40;15.60;;;2.00;80.00;;;;;;5068522;28;20397;-79
2022/01/12 09:29:27;;;;;;;16.37;15.57;;;2.10;80.00;;;;;;5051703;28;20056;-79
2022/01/12 09:31:53;;;;;;;15.67;14.97;;;2.10;80.00;;;;;;5051788;28;20029;-79
2022/01/12 09:34:19;;;;;;;16.63;15.83;;;2.10;80.00;;;;;;5069133;28;20032;-79
2022/01/12 09:36:45;;;;;;;17.70;16.90;;;2.10;79.90;;;;;;5067291;28;20028;-77
2022/01/12 09:39:13;;;;;;;15.57;14.87;;;2.00;80.00;;;;;;5068193;28;20056;-77
2022/01/12 09:41:39;;;;;;;15.70;15.00;;;2.00;80.10;;;;;;5069988;28;20024;-77
2022/01/12 09:44:05;;;;;;;15.50;14.80;;;2.10;80.20;;;;;;5068625;28;20047;-78
2022/01/12 09:46:31;;;;;;;15.93;15.23;;;2.00;80.10;;;;;;5053124;28;20044;-77
2022/01/12 09:48:59;;;;;;;16.33;15.27;;;2.00;80.10;;;;;;5053180;28;20040;-78
2022/01/12 09:51:25;;;;;;;17.00;16.10;;;2.10;80.30;;;;;;5068370;28;20032;-77
2022/01/12 09:53:52;;;;;;;15.83;15.13;;;2.10;80.10;;;;;;5067826;28;20040;-77
2022/01/12 09:56:21;;;;;;;15.93;15.17;;;2.20;80.10;;;;;;5051954;28;20033;-77
2022/01/12 09:58:51;;;;;;;16.60;15.80;;;2.20;80.10;;;;;;5085848;28;20043;-80
2022/01/12 10:01:32;;;;;;;15.75;15.05;;;2.20;80.00;;;;;;5052413;28;20047;-80
2022/01/12 10:04:08;;;;;;;16.38;15.57;;;2.20;80.00;;;;;;5059853;28;20032;-80
2022/01/12 10:06:41;;;;;;;16.20;15.47;;;2.30;80.00;;;;;;5071840;28;20040;-80
2022/01/12 10:09:08;;;;;;;16.90;16.10;;;2.30;80.00;;;;;;5088816;28;20029;-79
2022/01/12 10:11:34;;;;;;;15.90;15.20;;;2.30;79.90;;;;;;5100116;28;20032;-81
2022/01/12 10:14:02;;;;;;;15.70;15.00;;;2.30;79.90;;;;;;5069580;28;20036;-83
2022/01/12 10:16:28;;;;;;;16.67;15.87;;;2.30;79.90;;;;;;5078377;28;20382;-82
2022/01/12 10:18:57;;;;;;;17.13;16.13;;;2.40;80.10;;;;;;5092162;28;20056;-82
2022/01/12 10:21:32;;;;;;;16.30;15.50;;;2.30;79.90;;;;;;5089668;28;20021;-81
2022/01/12 10:24:09;;;;;;;15.73;15.03;;;2.40;80.10;;;;;;5062955;28;20028;-81
2022/01/12 10:26:43;;;;;;;16.73;15.93;;;2.40;79.90;;;;;;5089346;28;20029;-80
2022/01/12 10:29:14;;;;;;;16.00;15.30;;;2.50;79.90;;;;;;5078083;28;20029;-80
2022/01/12 10:31:49;;;;;;;16.10;15.30;;;2.50;79.90;;;;;;5060056;28;20036;-80
2022/01/12 10:34:16;;;;;;;16.20;15.50;;;2.50;79.90;;;;;;5071070;28;20029;-81
2022/01/12 10:36:43;;;;;;;16.00;15.30;;;2.50;80.70;;;;;;5091442;28;20037;-81
2022/01/12 10:39:14;;;;;;;16.00;15.30;;;2.50;80.00;;;;;;5079517;28;20045;-80
2022/01/12 10:41:59;;;;;;;;;;;2.50;79.90;;;;;;5080749;28;20027;-83
2022/01/12 10:44:36;;;;;;;17.77;16.87;;;2.60;79.90;;;;;;5056275;28;19935;-80
2022/01/12 10:47:07;;;;;;;17.83;16.40;;;2.60;79.70;;;;;;5101283;28;20029;-81
2022/01/12 10:49:36;;;;;;;15.52;14.82;;;2.60;79.80;;;;;;5101233;28;20389;-81
2022/01/12 10:52:03;;;;;;;16.60;15.80;;;2.60;79.80;;;;;;5077180;28;20036;-81
2022/01/12 10:54:31;;;;;;;16.53;15.73;;;2.70;79.90;;;;;;5061681;28;20024;-80
2022/01/12 10:56:57;;;;;;;15.47;14.77;;;2.70;79.80;;;;;;5066230;28;20037;-80
2022/01/12 10:59:23;;;;;;;16.77;15.87;;;2.70;79.80;;;;;;5087463;28;20047;-81
2022/01/12 11:01:49;;;;;;;15.60;14.90;;;2.60;79.80;;;;;;5068999;28;20021;-81
2022/01/12 11:04:15;;;;;;;16.43;15.63;;;2.60;79.80;;;;;;5067904;28;20033;-81
2022/01/12 11:06:42;;;;;;;15.90;15.13;;;2.50;80.00;;;;;;5100643;28;20489;-82
2022/01/12 11:09:08;;;;;;;16.50;15.47;;;2.60;80.20;;;;;;5100753;28;20637;-82
2022/01/12 11:11:34;;;;;;;16.10;15.40;;;2.60;80.30;;;;;;5085998;28;20052;-81
2022/01/12 11:14:00;;;;;;;15.43;14.73;;;2.60;80.20;;;;;;5069536;28;20392;-79
2022/01/12 11:16:27;;;;;;;16.83;15.83;;;2.70;80.10;;;;;;5059183;28;20048;-80
2022/01/12 11:18:54;;;;;;;18.03;17.13;;;2.70;80.10;;;;;;5066756;28;20044;-81
2022/01/12 11:21:20;;;;;;;18.33;17.23;;;2.70;80.10;;;;;;5100230;28;20025;-81
2022/01/12 11:23:46;;;;;;;16.53;15.73;;;2.70;80.10;;;;;;5070693;28;20024;-81
2022/01/12 11:26:14;;;;;;;17.37;16.50;;;2.70;80.00;;;;;;5053724;28;20374;-80
2022/01/12 11:28:40;;;;;;;16.80;16.00;;;2.70;80.00;;;;;;5073357;28;20375;-80
2022/01/12 11:31:08;;;;;;;16.83;16.03;;;2.80;80.10;;;;;;5074077;28;20037;-79
2022/01/12 11:33:34;;;;;;;16.23;15.40;;;2.80;80.10;;;;;;5091067;28;20043;-79
2022/01/12 11:36:15;;;;;;;16.30;15.50;;;2.80;80.00;;;;;;5065917;28;20037;-77
2022/01/12 11:38:47;;;;;;;18.73;17.40;;;2.90;80.00;;;;;;5103701;28;20043;-76
2022/01/12 11:41:21;;;;;;;15.87;15.17;;;2.90;79.90;;;;;;5085091;28;20385;-78
2022/01/12 11:43:50;;;;;;;18.30;17.17;;;3.00;79.90;;;;;;5083852;28;20036;-78
2022/01/12 11:46:23;;;;;;;16.90;15.90;;;3.00;79.90;;;;;;5066929;28;20041;-78
2022/01/12 11:48:54;;;;;;;17.60;16.50;;;3.10;79.90;;;;;;5058317;28;20036;-78
2022/01/12 11:51:36;;;;;;;16.60;15.80;;;3.10;79.80;;;;;;5091032;28;20033;-78
2022/01/12 11:54:16;;;;;;;16.40;15.63;;;3.20;79.80;;;;;;5058800;28;20029;-80
2022/01/12 11:56:58;;;;;;;17.77;16.93;;;3.30;79.80;;;;;;5082676;28;20036;-78
2022/01/12 11:59:26;;;;;;;17.33;16.43;;;3.40;79.70;;;;;;5065222;28;20490;-79
2022/01/12 12:01:53;;;;;;;17.90;16.97;;;3.60;79.40;;;;;;5067183;28;20032;-78
2022/01/12 12:04:27;;;;;;;17.57;16.70;;;3.70;79.70;;;;;;5060066;28;20029;-78
2022/01/12 12:07:13;;;;;;;17.03;16.23;;;3.90;79.10;;;;;;5096325;28;20363;-78
2022/01/12 12:09:42;;;;;;;16.17;15.43;;;4.10;78.80;;;;;;5081528;28;20020;-79
2022/01/12 12:12:15;;;;;;;17.50;16.70;;;4.30;78.30;;;;;;5083266;28;20044;-79
2022/01/12 12:14:50;;;;;;;16.60;15.80;;;4.40;78.00;;;;;;5096923;28;20029;-79
2022/01/12 12:17:17;;;;;;;18.20;17.30;;;4.40;78.00;;;;;;5069891;28;20413;-79
2022/01/12 12:19:44;;;;;;;16.90;16.10;;;4.40;77.80;;;;;;5071388;28;20048;-79
2022/01/12 12:22:10;;;;;;;17.27;16.37;;;4.40;78.00;;;;;;5081096;28;20037;-78
2022/01/12 12:24:37;;;;;;;18.47;17.50;;;4.50;78.20;;;;;;5103330;28;20031;-78
2022/01/12 12:27:03;;;;;;;17.30;16.50;;;4.70;78.10;;;;;;5085671;28;20024;-78
2022/01/12 12:29:29;;;;;;;19.03;18.07;;;4.90;77.90;;;;;;5035047;28;20064;-78
2022/01/12 12:31:58;;;;;;;17.90;17.10;;;5.00;77.60;;;;;;5071058;28;20041;-78
2022/01/12 12:34:25;;;;;;;20.20;19.20;;;5.20;77.40;;;;;;5086469;28;20032;-79
2022/01/12 12:37:02;;;;;;;19.77;18.87;;;5.40;77.00;;;;;;5068832;28;20024;-78
2022/01/12 12:39:33;;;;;;;18.80;17.90;;;5.50;76.90;;;;;;5069145;28;20512;-78
2022/01/12 12:42:00;;;;;;;20.63;19.63;;;5.60;76.80;;;;;;5068818;28;20028;-78
2022/01/12 12:44:28;;;;;;;18.70;17.80;;;5.70;76.70;;;;;;5070851;28;20037;-78
2022/01/12 12:47:19;;;;;;;19.07;18.17;;;5.90;76.50;;;;;;5071027;28;20525;-78
2022/01/12 12:49:52;;;;;;;20.88;19.88;;;6.00;76.20;;;;;;5071961;28;20025;-78
2022/01/12 12:52:29;;;;;;;18.50;17.60;;;6.00;76.00;;;;;;5070312;28;20040;-78
2022/01/12 12:54:57;;;;;;;18.77;17.77;;;6.10;76.10;;;;;;5052404;28;20516;-78
2022/01/12 12:57:24;;;;;;;18.63;17.73;;;6.20;75.80;;;;;;5053224;28;20029;-78
2022/01/12 13:00:12;;;;;;;19.40;18.40;;;6.20;75.90;;;;;;5053323;28;20041;-78
2022/01/12 13:02:40;;;;;;;17.67;16.87;;;6.20;75.90;;;;;;5056275;28;20044;-78
2022/01/12 13:05:08;;;;;;;18.27;17.27;;;6.30;75.80;;;;;;5069822;28;20032;-78
2022/01/12 13:07:39;;;;;;;18.00;17.10;;;6.30;75.80;;;;;;5102677;28;20039;-78
2022/01/12 13:10:07;;;;;;;18.83;17.90;;;6.40;75.80;;;;;;5085036;28;20051;-78
2022/01/12 13:12:40;;;;;;;18.17;17.37;;;6.40;75.50;;;;;;5101902;28;20051;-78
2022/01/12 13:15:08;;;;;;;18.47;17.63;;;6.50;75.50;;;;;;5084454;28;20043;-79
2022/01/12 13:17:37;;;;;;;17.93;17.13;;;6.40;75.50;;;;;;5069536;28;20056;-78
2022/01/12 13:22:36;;;;;;;18.13;17.33;;;6.50;75.30;;;;;;5084604;28;20032;-78
2022/01/12 13:25:05;;;;;;;19.53;18.53;;;6.50;75.40;;;;;;5102183;28;20043;-78
2022/01/12 13:27:32;;;;;;;18.63;17.73;;;6.50;75.40;;;;;;5101840;28;20032;-78
2022/01/12 13:29:58;;;;;;;19.63;18.50;;;6.60;75.50;;;;;;5068247;28;20043;-78
2022/01/12 13:32:24;;;;;;;19.87;18.67;;;6.70;75.30;;;;;;5066240;28;20032;-78
2022/01/12 13:34:58;;;;;;;18.53;17.70;;;6.70;75.10;;;;;;5071360;28;20032;-79
2022/01/12 13:37:24;;;;;;;19.00;18.10;;;6.80;75.00;;;;;;5036653;28;20041;-78
2022/01/12 13:40:11;;;;;;;18.90;17.77;;;6.80;75.00;;;;;;5067048;28;20041;-82
2022/01/12 13:43:06;;;;;;;18.63;17.73;;;6.80;75.20;;;;;;5067960;28;20028;-83
2022/01/12 13:45:44;;;;;;;18.80;17.90;;;6.90;74.90;;;;;;5056047;28;20386;-83
2022/01/12 13:48:14;;;;;;;19.03;18.13;;;6.90;74.80;;;;;;5055752;28;20040;-83
2022/01/12 13:50:43;;;;;;;19.30;18.40;;;6.90;74.70;;;;;;5091085;28;20029;-83
2022/01/12 13:53:09;;;;;;;18.83;17.93;;;6.80;74.70;;;;;;5101518;28;20021;-83
2022/01/12 13:55:35;;;;;;;18.87;17.97;;;6.70;74.90;;;;;;5055145;28;20025;-83
2022/01/12 13:58:10;;;;;;;18.80;17.90;;;6.60;75.00;;;;;;5088827;28;20037;-83